createdAt,value
2023-03-29T00:01:35.825Z,100.00
2023-03-29T00:04:10.746Z,100.00
2023-03-29T00:06:47.949Z,100.00
2023-03-29T00:09:21.575Z,100.00
2023-03-29T00:11:55.123Z,100.00
2023-03-29T00:14:31.132Z,100.00
2023-03-29T00:17:04.637Z,100.00
2023-03-29T00:19:38.303Z,100.00
2023-03-29T00:22:11.270Z,100.00
2023-03-29T00:24:48.031Z,100.00
2023-03-29T00:27:21.694Z,100.00
2023-03-29T00:29:55.138Z,100.00
2023-03-29T00:32:28.652Z,100.00
2023-03-29T00:35:02.447Z,100.00
2023-03-29T00:37:36.437Z,100.00
2023-03-29T00:40:13.640Z,100.00
2023-03-29T00:42:49.020Z,100.00
2023-03-29T00:45:25.436Z,100.00
2023-03-29T00:48:02.915Z,100.00
2023-03-29T00:50:40.020Z,100.00
2023-03-29T00:53:19.544Z,100.00
2023-03-29T00:55:59.058Z,100.00
2023-03-29T00:58:39.644Z,100.00
2023-03-29T01:01:19.694Z,100.00
2023-03-29T01:03:59.583Z,100.00
2023-03-29T01:06:36.618Z,100.00
2023-03-29T01:09:14.077Z,100.00
2023-03-29T01:11:50.966Z,100.00
2023-03-29T01:14:30.080Z,100.00
2023-03-29T01:17:04.676Z,100.00
2023-03-29T01:19:46.119Z,100.00
2023-03-29T01:22:31.606Z,100.00
2023-03-29T01:25:17.687Z,100.00
2023-03-29T01:27:56.622Z,100.00
2023-03-29T01:30:35.125Z,100.00
2023-03-29T01:33:14.654Z,100.00
2023-03-29T01:35:52.542Z,100.00
2023-03-29T01:38:32.232Z,100.00
2023-03-29T01:41:05.998Z,100.00
2023-03-29T01:43:46.086Z,100.00
2023-03-29T01:46:28.502Z,100.00
2023-03-29T01:49:05.466Z,100.00
2023-03-29T01:51:43.248Z,100.00
2023-03-29T01:54:21.980Z,100.00
2023-03-29T01:56:58.836Z,100.00
2023-03-29T01:59:35.803Z,100.00
2023-03-29T02:02:15.801Z,100.00
2023-03-29T02:04:53.128Z,100.00
2023-03-29T02:07:31.337Z,100.00
2023-03-29T02:10:05.728Z,100.00
2023-03-29T02:12:39.589Z,100.00
2023-03-29T02:15:19.272Z,100.00
2023-03-29T02:17:52.412Z,100.00
2023-03-29T02:20:28.997Z,100.00
2023-03-29T02:23:10.393Z,100.00
2023-03-29T02:25:45.762Z,100.00
2023-03-29T02:28:19.956Z,100.00
2023-03-29T02:30:58.278Z,100.00
2023-03-29T02:33:39.563Z,100.00
2023-03-29T02:36:19.931Z,100.00
2023-03-29T02:38:54.997Z,100.00
2023-03-29T02:41:30.006Z,100.00
2023-03-29T02:44:05.547Z,100.00
2023-03-29T02:46:42.750Z,100.00
2023-03-29T02:49:16.829Z,100.00
2023-03-29T02:51:52.819Z,100.00
2023-03-29T02:54:31.682Z,100.00
2023-03-29T02:57:08.120Z,100.00
2023-03-29T02:59:44.285Z,100.00
2023-03-29T03:02:18.137Z,100.00
2023-03-29T03:04:51.938Z,100.00
2023-03-29T03:07:26.180Z,100.00
2023-03-29T03:10:00.129Z,100.00
2023-03-29T03:12:33.701Z,100.00
2023-03-29T03:15:08.199Z,100.00
2023-03-29T03:17:44.996Z,100.00
2023-03-29T03:20:22.210Z,100.00
2023-03-29T03:22:57.700Z,100.00
2023-03-29T03:25:31.789Z,100.00
2023-03-29T03:28:06.142Z,100.00
2023-03-29T03:30:39.743Z,100.00
2023-03-29T03:33:33.632Z,100.00
2023-03-29T03:36:31.786Z,100.00
2023-03-29T03:39:07.449Z,100.00
2023-03-29T03:41:40.927Z,100.00
2023-03-29T03:44:14.224Z,100.00
2023-03-29T03:46:48.281Z,100.00
2023-03-29T03:49:22.152Z,100.00
2023-03-29T03:51:55.697Z,100.00
2023-03-29T03:54:29.234Z,100.00
2023-03-29T03:57:38.152Z,100.00
2023-03-29T04:00:21.538Z,100.00
2023-03-29T04:03:07.215Z,100.00
2023-03-29T04:05:44.736Z,100.00
2023-03-29T04:08:19.505Z,100.00
2023-03-29T04:11:12.750Z,100.00
2023-03-29T04:13:48.403Z,100.00
2023-03-29T04:16:34.333Z,100.00
2023-03-29T04:19:19.959Z,100.00
2023-03-29T04:21:53.392Z,100.00
2023-03-29T04:24:27.985Z,100.00
2023-03-29T04:27:17.960Z,100.00
2023-03-29T04:29:52.168Z,100.00
2023-03-29T04:32:32.084Z,100.00
2023-03-29T04:35:12.065Z,100.00
2023-03-29T04:37:45.688Z,100.00
2023-03-29T04:40:21.023Z,100.00
2023-03-29T04:43:18.316Z,100.00
2023-03-29T04:46:01.035Z,100.00
2023-03-29T04:48:57.971Z,100.00
2023-03-29T04:51:39.413Z,100.00
2023-03-29T04:54:13.268Z,100.00
2023-03-29T04:57:03.848Z,100.00
2023-03-29T04:59:52.774Z,100.00
2023-03-29T05:02:49.838Z,100.00
2023-03-29T05:05:23.729Z,100.00
2023-03-29T05:07:57.373Z,100.00
2023-03-29T05:10:35.229Z,100.00
2023-03-29T05:13:09.233Z,100.00
2023-03-29T05:15:43.185Z,100.00
2023-03-29T05:18:17.048Z,100.00
2023-03-29T05:20:53.181Z,100.00
2023-03-29T05:23:26.734Z,100.00
2023-03-29T05:26:19.312Z,100.00
2023-03-29T05:28:56.430Z,100.00
2023-03-29T05:31:30.254Z,100.00
2023-03-29T05:34:03.347Z,100.00
2023-03-29T05:36:37.428Z,100.00
2023-03-29T05:39:11.444Z,100.00
2023-03-29T05:41:45.499Z,100.00
2023-03-29T05:44:32.183Z,100.00
2023-03-29T05:47:13.394Z,100.00
2023-03-29T05:49:46.720Z,100.00
2023-03-29T05:52:24.089Z,100.00
2023-03-29T05:54:57.625Z,100.00
2023-03-29T05:57:31.003Z,100.00
2023-03-29T06:00:17.299Z,100.00
2023-03-29T06:02:51.407Z,100.00
2023-03-29T06:05:26.013Z,100.00
2023-03-29T06:08:10.034Z,100.00
2023-03-29T06:11:16.795Z,100.00
2023-03-29T06:14:13.908Z,100.00
2023-03-29T06:16:53.720Z,100.00
2023-03-29T06:19:28.548Z,100.00
2023-03-29T06:22:01.956Z,100.00
2023-03-29T06:24:35.283Z,100.00
2023-03-29T06:27:13.993Z,100.00
2023-03-29T06:29:48.414Z,100.00
2023-03-29T06:32:22.365Z,100.00
2023-03-29T06:35:07.277Z,100.00
2023-03-29T06:37:51.320Z,100.00
2023-03-29T06:40:48.409Z,100.00
2023-03-29T06:43:22.275Z,100.00
2023-03-29T06:46:01.187Z,100.00
2023-03-29T06:48:45.368Z,100.00
2023-03-29T06:51:19.887Z,100.00
2023-03-29T06:53:55.922Z,100.00
2023-03-29T06:56:30.164Z,100.00
2023-03-29T06:59:23.586Z,100.00
2023-03-29T07:02:17.648Z,100.00
2023-03-29T07:04:54.597Z,100.00
2023-03-29T07:07:53.957Z,100.00
2023-03-29T07:10:42.223Z,100.00
2023-03-29T07:13:42.846Z,100.00
2023-03-29T07:16:19.476Z,100.00
2023-03-29T07:18:55.584Z,100.00
2023-03-29T07:21:48.307Z,100.00
2023-03-29T07:24:22.607Z,100.00
2023-03-29T07:27:04.070Z,100.00
2023-03-29T07:29:39.958Z,100.00
2023-03-29T07:32:13.721Z,100.00
2023-03-29T07:34:50.106Z,100.00
2023-03-29T07:37:40.085Z,100.00
2023-03-29T07:40:16.395Z,100.00
2023-03-29T07:43:19.361Z,100.00
2023-03-29T07:45:53.221Z,100.00
2023-03-29T07:48:27.015Z,100.00
2023-03-29T07:51:07.615Z,100.00
2023-03-29T07:53:49.518Z,100.00
2023-03-29T07:56:41.812Z,100.00
2023-03-29T07:59:28.949Z,100.00
2023-03-29T08:02:14.603Z,100.00
2023-03-29T08:04:51.692Z,100.00
2023-03-29T08:07:46.637Z,100.00
2023-03-29T08:10:27.911Z,100.00
2023-03-29T08:13:21.601Z,100.00
2023-03-29T08:16:15.971Z,100.00
2023-03-29T08:18:55.414Z,100.00
2023-03-29T08:21:29.927Z,100.00
2023-03-29T08:24:03.438Z,100.00
2023-03-29T08:26:47.068Z,100.00
2023-03-29T08:29:22.935Z,100.00
2023-03-29T08:31:56.563Z,100.00
2023-03-29T08:34:32.186Z,100.00
2023-03-29T08:37:28.572Z,100.00
2023-03-29T08:40:04.206Z,98.38
2023-03-29T08:43:02.119Z,98.05
2023-03-29T08:45:49.720Z,97.38
2023-03-29T08:48:31.838Z,95.25
2023-03-29T08:51:08.655Z,92.65
2023-03-29T08:53:48.193Z,94.12
2023-03-29T08:56:34.139Z,94.90
2023-03-29T08:59:56.856Z,93.59
2023-03-29T09:02:32.995Z,92.09
2023-03-29T09:05:28.164Z,88.62
2023-03-29T09:08:17.772Z,87.22
2023-03-29T09:11:12.727Z,83.94
2023-03-29T09:13:57.384Z,82.96
2023-03-29T09:16:38.411Z,83.55
2023-03-29T09:19:21.790Z,85.25
2023-03-29T09:22:04.602Z,84.50
2023-03-29T09:24:48.858Z,82.12
2023-03-29T09:27:28.102Z,83.16
2023-03-29T09:30:27.160Z,84.02
2023-03-29T09:33:05.229Z,86.08
2023-03-29T09:36:05.290Z,88.22
2023-03-29T09:38:44.643Z,87.19
2023-03-29T09:41:26.791Z,88.50
2023-03-29T09:44:12.661Z,90.75
2023-03-29T09:46:53.900Z,89.27
2023-03-29T09:49:32.968Z,88.46
2023-03-29T09:52:13.173Z,87.63
2023-03-29T09:54:47.594Z,87.03
2023-03-29T09:57:44.160Z,84.14
2023-03-29T10:00:20.903Z,84.60
2023-03-29T10:03:00.430Z,84.54
2023-03-29T10:05:54.692Z,83.01
2023-03-29T10:08:30.490Z,82.94
2023-03-29T10:11:11.042Z,80.02
2023-03-29T10:13:50.843Z,79.55
2023-03-29T10:16:26.577Z,79.70
2023-03-29T10:19:00.024Z,79.01
2023-03-29T10:21:34.850Z,76.54
2023-03-29T10:24:10.518Z,76.73
2023-03-29T10:26:43.938Z,78.32
2023-03-29T10:29:17.805Z,79.06
2023-03-29T10:31:52.360Z,79.04
2023-03-29T10:34:28.600Z,78.05
2023-03-29T10:37:03.666Z,79.02
2023-03-29T10:39:38.390Z,79.24
2023-03-29T10:42:17.325Z,78.74
2023-03-29T10:44:58.562Z,78.90
2023-03-29T10:47:35.612Z,79.31
2023-03-29T10:50:16.809Z,80.04
2023-03-29T10:52:51.172Z,82.19
2023-03-29T10:55:30.534Z,83.31
2023-03-29T10:58:15.834Z,83.34
2023-03-29T11:00:57.422Z,79.35
2023-03-29T11:03:52.673Z,76.39
2023-03-29T11:06:33.461Z,74.64
2023-03-29T11:09:16.148Z,72.38
2023-03-29T11:12:15.136Z,70.31
2023-03-29T11:15:05.097Z,69.15
2023-03-29T11:17:53.870Z,68.75
2023-03-29T11:20:35.014Z,67.40
2023-03-29T11:23:22.573Z,66.49
2023-03-29T11:26:09.912Z,64.95
2023-03-29T11:28:49.314Z,64.71
2023-03-29T11:31:34.857Z,63.74
2023-03-29T11:34:23.445Z,64.38
2023-03-29T11:37:02.804Z,64.12
2023-03-29T11:39:45.350Z,60.91
2023-03-29T11:42:23.144Z,58.96
2023-03-29T11:44:58.448Z,58.40
2023-03-29T11:47:36.806Z,56.31
2023-03-29T11:50:19.857Z,56.00
2023-03-29T11:52:57.988Z,55.36
2023-03-29T11:55:33.998Z,56.12
2023-03-29T11:58:14.673Z,55.24
2023-03-29T12:00:55.742Z,54.92
2023-03-29T12:03:38.906Z,54.07
2023-03-29T12:06:21.982Z,53.75
2023-03-29T12:09:00.695Z,55.27
2023-03-29T12:11:40.469Z,53.60
2023-03-29T12:14:19.299Z,53.28
2023-03-29T12:16:56.311Z,53.20
2023-03-29T12:19:39.678Z,52.13
2023-03-29T12:22:15.843Z,52.94
2023-03-29T12:24:55.629Z,52.92
2023-03-29T12:27:34.192Z,52.75
2023-03-29T12:30:41.021Z,53.17
2023-03-29T12:33:29.675Z,52.87
2023-03-29T12:36:45.719Z,53.04
2023-03-29T12:39:41.034Z,51.44
2023-03-29T12:42:33.334Z,51.81
2023-03-29T12:45:21.364Z,52.87
2023-03-29T12:47:55.131Z,52.06
2023-03-29T12:50:33.485Z,51.33
2023-03-29T12:53:15.520Z,51.63
2023-03-29T12:55:56.743Z,51.64
2023-03-29T12:58:44.013Z,52.43
2023-03-29T13:01:31.579Z,52.29
2023-03-29T13:04:23.555Z,50.37
2023-03-29T13:07:04.716Z,51.15
2023-03-29T13:09:51.330Z,49.95
2023-03-29T13:12:32.953Z,49.44
2023-03-29T13:15:23.836Z,49.42
2023-03-29T13:18:12.370Z,49.95
2023-03-29T13:20:56.436Z,49.81
2023-03-29T13:23:42.526Z,49.15
2023-03-29T13:26:52.380Z,48.29
2023-03-29T13:29:49.739Z,48.15
2023-03-29T13:32:47.552Z,47.97
2023-03-29T13:35:32.384Z,47.51
2023-03-29T13:38:20.090Z,47.35
2023-03-29T13:41:08.432Z,47.74
2023-03-29T13:43:53.868Z,48.25
2023-03-29T13:46:37.815Z,47.79
2023-03-29T13:49:19.924Z,47.65
2023-03-29T13:52:16.572Z,47.41
2023-03-29T13:54:56.643Z,47.02
2023-03-29T13:57:39.264Z,46.67
2023-03-29T14:00:21.999Z,45.84
2023-03-29T14:02:56.465Z,45.53
2023-03-29T14:05:33.586Z,46.10
2023-03-29T14:08:14.987Z,46.03
2023-03-29T14:10:49.126Z,46.28
2023-03-29T14:13:27.202Z,45.87
2023-03-29T14:16:04.575Z,45.73
2023-03-29T14:18:41.576Z,45.83
2023-03-29T14:21:15.985Z,45.17
2023-03-29T14:23:55.843Z,45.61
2023-03-29T14:26:34.717Z,44.92
2023-03-29T14:29:12.133Z,45.15
2023-03-29T14:31:46.267Z,45.12
2023-03-29T14:34:20.770Z,45.39
2023-03-29T14:36:54.865Z,45.53
2023-03-29T14:39:28.454Z,45.17
2023-03-29T14:42:02.536Z,44.48
2023-03-29T14:44:37.186Z,44.40
2023-03-29T14:47:16.567Z,43.71
2023-03-29T14:49:50.601Z,44.24
2023-03-29T14:52:24.569Z,44.62
2023-03-29T14:55:00.428Z,44.53
2023-03-29T14:57:39.809Z,44.58
2023-03-29T15:00:31.874Z,44.89
2023-03-29T15:03:14.406Z,45.13
2023-03-29T15:05:54.007Z,44.76
2023-03-29T15:08:34.208Z,45.08
2023-03-29T15:11:16.070Z,44.68
2023-03-29T15:13:51.393Z,44.72
2023-03-29T15:16:25.443Z,44.52
2023-03-29T15:18:59.612Z,44.67
2023-03-29T15:21:35.876Z,44.51
2023-03-29T15:24:22.655Z,44.84
2023-03-29T15:27:05.701Z,44.73
2023-03-29T15:29:42.121Z,44.76
2023-03-29T15:32:24.015Z,44.49
2023-03-29T15:35:05.086Z,44.69
2023-03-29T15:37:38.851Z,44.67
2023-03-29T15:40:17.295Z,44.70
2023-03-29T15:42:50.896Z,44.62
2023-03-29T15:45:26.005Z,44.73
2023-03-29T15:48:02.122Z,44.67
2023-03-29T15:50:36.105Z,44.97
2023-03-29T15:53:15.224Z,45.28
2023-03-29T15:55:52.331Z,44.82
2023-03-29T15:58:29.531Z,45.25
2023-03-29T16:01:13.432Z,45.18
2023-03-29T16:03:48.059Z,45.47
2023-03-29T16:06:24.108Z,44.83
2023-03-29T16:08:57.591Z,44.77
2023-03-29T16:11:31.894Z,45.65
2023-03-29T16:14:08.129Z,45.89
2023-03-29T16:16:41.446Z,46.11
2023-03-29T16:19:15.138Z,46.11
2023-03-29T16:21:48.740Z,45.56
2023-03-29T16:24:24.229Z,45.87
2023-03-29T16:26:58.190Z,46.34
2023-03-29T16:29:32.112Z,46.03
2023-03-29T16:32:06.918Z,45.79
2023-03-29T16:37:14.843Z,46.46
2023-03-29T16:39:48.297Z,47.01
2023-03-29T16:42:21.372Z,47.34
2023-03-29T16:44:55.162Z,47.80
2023-03-29T16:47:28.668Z,48.01
2023-03-29T16:50:01.815Z,47.39
2023-03-29T16:52:35.280Z,47.67
2023-03-29T16:55:12.316Z,47.88
2023-03-29T16:57:46.238Z,48.28
2023-03-29T17:00:22.372Z,48.59
2023-03-29T17:02:56.585Z,48.50
2023-03-29T17:05:30.370Z,48.88
2023-03-29T17:08:03.971Z,49.18
2023-03-29T17:10:38.007Z,49.18
2023-03-29T17:13:12.894Z,49.16
2023-03-29T17:15:46.446Z,49.58
2023-03-29T17:18:20.355Z,49.81
2023-03-29T17:20:56.997Z,50.25
2023-03-29T17:23:30.824Z,50.31
2023-03-29T17:26:04.608Z,50.77
2023-03-29T17:28:38.306Z,51.07
2023-03-29T17:31:11.910Z,51.16
2023-03-29T17:33:45.091Z,51.84
2023-03-29T17:36:19.366Z,51.62
2023-03-29T17:38:54.973Z,51.82
2023-03-29T17:41:31.227Z,51.92
2023-03-29T17:44:05.010Z,51.86
2023-03-29T17:46:38.871Z,51.41
2023-03-29T17:49:14.179Z,51.40
2023-03-29T17:51:47.663Z,51.73
2023-03-29T17:54:21.257Z,52.08
2023-03-29T17:56:54.725Z,52.08
2023-03-29T17:59:28.289Z,51.98
2023-03-29T18:02:03.184Z,52.94
2023-03-29T18:04:36.619Z,53.20
2023-03-29T18:07:13.220Z,54.01
2023-03-29T18:09:53.293Z,54.73
2023-03-29T18:12:27.969Z,55.52
2023-03-29T18:15:03.268Z,55.39
2023-03-29T18:17:37.201Z,56.18
2023-03-29T18:20:12.065Z,56.32
2023-03-29T18:22:45.977Z,57.87
2023-03-29T18:25:21.304Z,57.99
2023-03-29T18:27:55.309Z,57.63
2023-03-29T18:30:29.018Z,58.52
2023-03-29T18:33:02.491Z,60.05
2023-03-29T18:35:36.954Z,60.68
2023-03-29T18:38:10.338Z,61.56
2023-03-29T18:40:43.713Z,62.21
2023-03-29T18:43:17.252Z,62.56
2023-03-29T18:45:51.358Z,63.00
2023-03-29T18:48:25.996Z,64.58
2023-03-29T18:51:02.794Z,66.19
2023-03-29T18:53:38.906Z,67.33
2023-03-29T18:56:12.634Z,68.38
2023-03-29T18:58:46.503Z,68.48
2023-03-29T19:01:19.705Z,69.10
2023-03-29T19:03:53.262Z,70.54
2023-03-29T19:06:26.631Z,71.05
2023-03-29T19:09:02.335Z,72.20
2023-03-29T19:11:37.029Z,73.10
2023-03-29T19:14:10.273Z,73.42
2023-03-29T19:16:43.467Z,75.51
2023-03-29T19:19:17.064Z,76.27
2023-03-29T19:21:51.832Z,77.21
2023-03-29T19:24:25.404Z,78.44
2023-03-29T19:26:58.746Z,79.55
2023-03-29T19:29:32.076Z,80.67
2023-03-29T19:32:07.128Z,81.95
2023-03-29T19:34:42.555Z,82.97
2023-03-29T19:37:17.759Z,83.26
2023-03-29T19:39:51.996Z,85.05
2023-03-29T19:42:25.594Z,86.04
2023-03-29T19:44:59.202Z,86.68
2023-03-29T19:47:33.436Z,87.67
2023-03-29T19:50:07.179Z,88.54
2023-03-29T19:52:41.270Z,88.54
2023-03-29T19:55:14.888Z,89.21
2023-03-29T19:57:48.291Z,90.30
2023-03-29T20:00:25.122Z,90.76
2023-03-29T20:02:58.741Z,91.41
2023-03-29T20:05:32.900Z,92.02
2023-03-29T20:08:06.728Z,92.24
2023-03-29T20:10:40.169Z,92.87
2023-03-29T20:13:14.558Z,93.61
2023-03-29T20:15:51.602Z,93.94
2023-03-29T20:18:24.780Z,94.09
2023-03-29T20:20:58.400Z,94.56
2023-03-29T20:23:32.191Z,94.63
2023-03-29T20:26:05.580Z,95.31
2023-03-29T20:28:38.973Z,95.00
2023-03-29T20:31:13.341Z,94.37
2023-03-29T20:33:46.791Z,94.24
2023-03-29T20:36:23.166Z,94.33
2023-03-29T20:38:58.917Z,93.97
2023-03-29T20:41:33.907Z,93.89
2023-03-29T20:44:07.164Z,95.20
2023-03-29T20:46:54.776Z,94.74
2023-03-29T20:49:28.458Z,95.42
2023-03-29T20:52:02.580Z,95.51
2023-03-29T20:54:36.077Z,96.06
2023-03-29T20:57:11.237Z,96.62
2023-03-29T20:59:45.615Z,96.61
2023-03-29T21:02:21.426Z,97.11
2023-03-29T21:05:00.313Z,98.24
2023-03-29T21:07:33.949Z,98.26
2023-03-29T21:10:08.808Z,97.48
2023-03-29T21:12:42.318Z,97.34
2023-03-29T21:15:18.147Z,98.36
2023-03-29T21:17:51.353Z,99.14
2023-03-29T21:20:24.779Z,99.07
2023-03-29T21:22:58.352Z,99.14
2023-03-29T21:25:31.553Z,100.00
2023-03-29T21:28:05.261Z,99.47
2023-03-29T21:30:38.626Z,100.00
2023-03-29T21:33:12.131Z,100.00
2023-03-29T21:35:45.972Z,100.00
2023-03-29T21:38:19.770Z,100.00
2023-03-29T21:40:52.935Z,100.00
2023-03-29T21:43:26.732Z,100.00
2023-03-29T21:45:59.977Z,100.00
2023-03-29T21:48:34.196Z,100.00
2023-03-29T21:51:09.187Z,100.00
2023-03-29T21:53:42.663Z,100.00
2023-03-29T21:56:16.503Z,100.00
2023-03-29T21:58:49.971Z,100.00
2023-03-29T22:01:23.528Z,100.00
2023-03-29T22:03:57.030Z,100.00
2023-03-29T22:06:31.044Z,100.00
2023-03-29T22:09:05.368Z,100.00
2023-03-29T22:11:39.771Z,100.00
2023-03-29T22:14:14.189Z,100.00
2023-03-29T22:16:47.573Z,100.00
2023-03-29T22:19:21.234Z,100.00
2023-03-29T22:22:00.311Z,100.00
2023-03-29T22:24:34.040Z,100.00
2023-03-29T22:27:07.642Z,100.00
2023-03-29T22:29:40.806Z,100.00
2023-03-29T22:32:14.463Z,100.00
2023-03-29T22:34:48.139Z,100.00
2023-03-29T22:37:22.744Z,100.00
2023-03-29T22:39:56.685Z,100.00
2023-03-29T22:42:29.710Z,100.00
2023-03-29T22:45:03.215Z,100.00
2023-03-29T22:47:37.095Z,100.00
2023-03-29T22:50:13.411Z,100.00
2023-03-29T22:52:46.576Z,100.00
2023-03-29T22:55:21.027Z,100.00
2023-03-29T22:57:54.627Z,100.00
2023-03-29T23:00:28.695Z,100.00
2023-03-29T23:03:02.525Z,100.00
2023-03-29T23:05:36.308Z,100.00
2023-03-29T23:08:09.701Z,100.00
2023-03-29T23:10:43.038Z,100.00
2023-03-29T23:13:20.736Z,100.00
2023-03-29T23:15:55.381Z,100.00
2023-03-29T23:18:30.740Z,100.00
2023-03-29T23:21:06.358Z,100.00
2023-03-29T23:23:40.720Z,100.00
2023-03-29T23:26:14.155Z,100.00
2023-03-29T23:28:47.845Z,100.00
2023-03-29T23:31:21.494Z,100.00
2023-03-29T23:33:54.930Z,100.00
2023-03-29T23:36:31.311Z,100.00
2023-03-29T23:39:08.191Z,100.00
2023-03-29T23:41:41.778Z,100.00
2023-03-29T23:44:15.267Z,100.00
2023-03-29T23:46:49.444Z,100.00
2023-03-29T23:49:24.241Z,100.00
2023-03-29T23:52:00.338Z,100.00
2023-03-29T23:54:33.788Z,100.00
2023-03-29T23:57:07.536Z,100.00
2023-03-29T23:59:41.285Z,100.00
